Aviation Digital Data Service (ADDS)

Output produced by METARs form (0143 UTC 16 January 2019)
found at http://www.aviationweather.gov/metar/data/
 
UNAA 160130Z 00000MPS 3800 BR FU NSC M26/M28 Q1022 R02/810257 NOSIG RMK QFE744
TAF UNAA 152254Z 1600/1624 02002MPS 3100 BR FU NSC 
     TEMPO 1600/1603 0800 FZFG FU FEW005
       
UOOO 160130Z 24004MPS 2100 -SN NSC M15/M17 Q0994 R19/39//36 NOSIG RMK QFE730/0973
TAF UOOO 152303Z 1600/1624 24003G08MPS 4000 -SN BKN010 
     TEMPO 1600/1602 1000 SN BR SCT004 
     TEMPO 1602/1608 0500 FZFG VV002 
     TEMPO 1608/1610 1000 SN BR SCT004 
     FM161000 18004G10MPS 6000 
     TEMPO 1610/1621 1200 SN BR SCT004
       
URWA 160130Z 12007MPS 4700 BR OVC004 01/01 Q1004 R09/190055 NOSIG RMK OBST OBSC QFE755/1006
TAF URWA 152300Z 1600/1609 12007G12MPS 3100 BR BKN005 
     TEMPO 1600/1606 OVC003
       
USCC 160130Z 16003MPS 6000 SCT040 M09/M11 Q1015 R27/390045 TEMPO 1100 BR FU RMK QFE741
TAF USCC 152300Z 1600/1624 20003G08MPS 3100 BR FU SCT011 
     FM160500 20003G10MPS 5000 BR BKN020 
     TEMPO 1605/1618 3100 -SN FU BKN011
       
UNBB 160130Z 20004MPS CAVOK M07/M11 Q1017 R24/320150 NOSIG RMK QFE740
TAF UNBB 152300Z 1600/1624 18003MPS 9999 SCT020CB 
     TEMPO 1600/1606 0300 FZFG BKN002 BKN011CB 
     TEMPO 1606/1614 32003MPS 3100 -SHSN BR SCT002 BKN011CB 
     TEMPO 1614/1624 0500 FZFG FU SCT002 BKN011CB
       
UWKE 160130Z 19007G12MPS 9999 -SN DRSN OVC007 M03/M04 Q1008 R21/450535 NOSIG RMK OBST OBSC QFE739/0985
TAF UWKE 152245Z 1600/1624 19007G12MPS 3100 -SN BLSN OVC011 
     TEMPO 1600/1606 17009G14MPS 0300 +SN FZDZ OVC002 
     TEMPO 1606/1621 17009G14MPS 1000 SNRA OVC003
       
UUOB 160130Z 24004MPS CAVOK M07/M09 Q0998 R29/810355 NOSIG
TAF UUOB 152300Z 1600/1609 22004MPS 9999 BKN015
       
TAF URMO 151400Z 1515/24 12003G08MPS 5000 BR SCT020 
     TEMPO 1515/1521 0500 FZFG OVC002
       
USPP 160130Z 20007MPS 9999 -SN DRSN BKN014 M05/M07 Q1008 R21/490340 TEMPO 1000 FZRA SN VV003 RMK QFE745
TAF AMD USPP 152343Z 1600/1624 18007G15MPS 3100 -SN BLSN BKN011 OVC070 
     TEMPO 1600/1608 16010G16MPS 1100 SN BLSN VV003 
     BECMG 1608/1610 9999 NSW 
     BECMG 1617/1619 6000 -SN DRSN
       
UIBB 160130Z 00000MPS 9999 NSC M20/M22 Q1013 R30/490137 NOSIG RMK QFE717/0956
TAF UIBB 152300Z 1600/1624 10003MPS 3500 BR BKN011 
     TEMPO 1600/1603 0300 FZFG VV001 
     FM160600 20005MPS 9999 SCT016CB
       
TAF UUBP 151358Z 1515/1524 20007MPS 5000 -SN BKN015 
     TEMPO 1515/1518 22005G10MPS 1500 SHSN BKN007 BKN011CB
       
UWKS 160130Z 15004MPS 2100 -SN BKN008 M01/M01 Q1001 R24/450537 TEMPO 1000 SN BR BKN005 RMK QFE737
TAF UWKS 152245Z 1600/1609 16003G09MPS 3100 -SN BKN010 
     TEMPO 1602/1609 1800 SN SCT006
       
UUOO 160130Z 00000MPS 6000 NSC M05/M06 Q0998 R30/090050 NOSIG RMK QFE735
TAF UUOO 152300Z 1600/1609 23002MPS 6000 BKN011
       
URWW 160130Z 14008MPS 0350 0300NE R06/0800U -DZ FG VV002 00/00 Q1000 R06/610250 NOSIG RMK QBB060 OBST OBSC
TAF URWW 152257Z 1600/1609 15008G14MPS 0300 FZFG OVC002 BKN020CB 
     TEMPO 1600/1609 17010G16MPS 3100 -FZRA -SHRASN OVC005 BKN020CB
       
UHBB 160130Z 36003MPS 9999 FEW033 M23/M26 Q1013 R36/450250 NOSIG RMK QFE742/0990
TAF UHBB 152245Z 1600/1624 35003MPS 9999 SCT030 
     BECMG 1602/1604 35005G10MPS
       
UIII 160130Z 32001MPS CAVOK M20/M23 Q1015 R12/810550 NOSIG RMK QFE719/0959
TAF UIII 152300Z 1600/1624 14003MPS 9999 NSC 
     BECMG 1607/1608 30006MPS 
     TEMPO 1608/1618 2000 FU
       
UIAA 160130Z VRB01MPS 9999 NSC M20/M25 Q1015 R29/410150 NOSIG RMK QFE703/0937
TAF UIAA 152300Z 1600/1624 28006G12MPS 9999 SCT040CB 
     TEMPO 1600/1603 22004MPS
       
UWKD 160130Z 16008MPS 2200 -SNRA OVC003 M00/M01 Q1004 R11/420536 TEMPO 0700 +SN OVC002 RMK QFE743/0991
TAF UWKD 152259Z 1600/1624 19005G12MPS 3100 -SNRA OVC006 TXM00/1600Z TNM04/1623Z

     TEMPO 1600/1602 1500 SNRA BKN004 
     TEMPO 1602/1618 0700 +SNRA OVC003 
     FM161800 30006G12MPS 5000 -SN BLSN BKN011 
     TEMPO 1619/1624 27007G15MPS 2000 SN BLSN BKN006
       
UNEE 160130Z 20002MPS 4100 -SN OVC038 M08/M10 Q1016 R23/490533 NOSIG RMK QFE739
TAF UNEE 152300Z 1600/1624 19003G08MPS 9999 SCT030CB 
     TEMPO 1600/1624 3100 -SHSN BR SCT002 BKN011CB 
     BECMG 1603/1605 27003MPS
       
UHSS 160130Z 30008G13MPS 4800 BLSN BKN027CB M08/M12 Q0999 R01/420355 NOSIG RMK MT OBSC QFE748/0998
TAF UHSS 152300Z 1600/1706 31007G12MPS 5000 -SHSN BLSN BKN030CB OVC100 
     TEMPO 1600/1706 0700 +SHSN BLSN BKN006 BKN030CB 
     BECMG 1609/1612 27006MPS
       
UMKK 160130Z 26002MPS 9999 BKN019CB M01/M02 Q0998 RESHSN R24/490234 NOSIG RMK QFE747/0996
TAF UMKK 152257Z 1600/1624 VRB01MPS 3100 -SNRA BR BKN007 BKN011 
     TEMPO 1600/1606 30003G08MPS 1100 SHSN BR BKN004 BKN012CB 
     FM160700 19003MPS 4000 BR BKN011 
     TEMPO 1612/1618 23006MPS 2100 -RA BR BKN005 
     BECMG 1618/1620 22008G13MPS 3100 -RA BR
       
UHWW 160130Z 06002MPS 9999 NSC M13/M21 Q1019 R25L/0///70 NOSIG RMK QFE763
TAF UHWW 152300Z 1600/1624 34003MPS 9999 SCT030 
     TEMPO 1600/1610 33010MPS
       
USSS 160130Z 18004MPS 9999 -SHSN BKN036CB M07/M08 Q1012 R26R/490137 NOSIG RMK QFE738/0985
TAF USSS 152253Z 1600/1624 18003G13MPS 3100 -SHSN BKN011 BKN020CB
       
UNKL 160130Z 24002MPS CAVOK M07/M16 Q1015 R11/810160 NOSIG RMK QFE736
TAF UNKL 152259Z 1600/1624 23003G10MPS 9999 SCT030 
     FM160300 24003G11MPS 9000 -SHSN SCT015CB 
     TEMPO 1603/1621 3100 -SHSN SCT011 BKN013CB
       
TAF UUOK 151651Z 1518/1603 20003MPS 9999 BKN011
       
UWWW 160130Z 17008MPS 1400 1300NE R15/P2000N SN OVC008 M02/M03 Q1008 R15/420532 TEMPO 0500 +SN RMK QFE744/0993
TAF UWWW 152300Z 1600/1624 18009G15MPS 2100 -SN OVC007 TXM02/1612Z TNM03/1603Z 
     TEMPO 1600/1604 17007MPS 0300 +SN FZDZ FZFG VV002 
     FM160400 17009G14MPS 3100 -SN OVC011 
     TEMPO 1604/1624 16012G18MPS 0500 +SN VV003
       
USCM 160130Z 18004MPS 9999 BKN030 M12/M15 Q1016 R18/820250 NOSIG RMK QFE725
TAF USCM 152300Z 1600/1609 19003G08MPS 5000 BR BKN011 
     TEMPO 1600/1609 3100 -SN BKN015
       
URMM 160130Z VRB01MPS 1200 R12/P2000U BR OVC002 M02/M03 Q0997 R12/090070 NOSIG RMK QBB070 MT OBSC QFE720/0960
TAF URMM 152258Z 1600/1624 10003G08MPS 3100 BR OVC003 TX02/1611Z TNM03/1603Z 
     TEMPO 1600/1608 0300 FZDZ FZFG OVC002 
     FM160800 28005G10MPS 5000 -SHRA BR BKN011 BKN020CB 
     TEMPO 1608/1621 28008G18MPS
       
UIUU 160130Z 09001MPS 3600 BR FU NSC M25/M28 Q1020 R26/810550 NOSIG RMK QFE721/0961
TAF UIUU 152300Z 1600/1624 09003G08MPS 2500 BR FU SCT030 
     TEMPO 1600/1604 1000 BR FU VV009 
     BECMG 1604/1606 3100 -SHSN FU SCT025CB
       
ULMM 160130Z 00000MPS 8000 SCT003 M22/M26 Q0994 R31/490243 NOSIG RMK QBB090 OBST OBSC QFE738
TAF ULMM 152252Z 1600/1624 12003MPS 3100 BR BKN004 BKN011 
     TEMPO 1600/1609 VRB01MPS 0300 -SHSN FZFG BKN002 BKN011CB 
     BECMG 1609/1611 9999 NSW SCT011 
     TEMPO 1611/1624 4000 -SG BR BKN004 OVC011
       
URMN 160100Z 02002MPS 0500 R24/0650 FZFG VV002 M03/M03 Q0996 R24/////// NOSIG RMK QBB060 MT OBSC OBST OBSC QFE711
TAF URMN 152300Z 1600/1609 10003G08MPS 1200 BR OVC003 
     TEMPO 1600/1609 0300 FZDZ FZFG OVC002
       
USNN 160130Z 19001MPS CAVOK M17/M18 Q1013 R21/420233 NOSIG RMK QFE755
TAF USNN 152300Z 1600/1624 22003MPS 9999 SCT007 
     TEMPO 1600/1604 VRB01MPS 0800 FZFG VV002
       
UHHH 160130Z 25006MPS 8000 -SN SCT048 M17/M20 Q1010 R23L/090060 NOSIG RMK QFE751/1001
TAF UHHH 152248Z 1600/1706 25008MPS 9999 SCT020 
     TEMPO 1600/1618 26007G12MPS 2000 SN BKN012
       
UWOO 160130Z 15003MPS CAVOK M12/M14 Q1019 R08/820550 NOSIG RMK QFE754/1005
TAF UWOO 152252Z 1600/1624 14005G10MPS 3100 -SN BR BKN011 OVC020 TXM08/1609Z
TNM14/1603Z 
     TEMPO 1600/1606 12003G09MPS 0300 FZFG VV002 
     FM160600 14008G14MPS 3100 -SN BLSN OVC011 
     TEMPO 1609/1624 15010G17MPS 1200 SHSN BLSN BKN005 BKN015CB
       
UWOR 160100Z 11001MPS 6000 NSC M21/M25 Q1020 R25/490145 NOSIG RMK QFE741/0988
TAF UWOR 152255Z 1600/1609 18003G09MPS 3100 -SN BR OVC011 
     TEMPO 1600/1606 16004MPS 0400 FZFG VV002 
     TEMPO 1606/1609 15007G13MPS
       
URKK 160130Z 10005MPS 6000 -SHRA BKN037CB 05/04 Q0995 R05R/290257 TEMPO 2000 TSRA SCT005 BKN020CB RMK QFE743
TAF AMD URKK 160142Z 1601/1703 10005G10MPS 5000 -SHRA BR BKN020CB 
     TEMPO 1601/1603 14007G14MPS 1000 TSRA BKN004 BKN020CB 
     FM160300 31007G12MPS 3100 -SHRA SCT011 BKN020CB 
     TEMPO 1603/1615 30009G16MPS 0500 +SHRASN BKN002 BKN020CB 
     PROB40 1603/1615 -TSRASN
       
TAF UERP 152300Z 1600/1624 18006G11MPS 5000 -SN BKN017 OVC100 
     TEMPO 1600/1606 2100 -SN
       
ULOO 160100Z AUTO 21003MPS 7000 // ///006/// M04/M05 Q0989 RMK QFE738
ULLI 160130Z 24003MPS 190V270 9999 FEW010 BKN016 M04/M06 Q0986 R28L/420545 NOSIG
TAF ULLI 152257Z 1600/1624 22003G08MPS 6000 BKN011 BKN020 
     TEMPO 1600/1606 1500 -SN BR BKN006 BKN015 
     BECMG 1602/1604 28004G09MPS 
     TEMPO 1606/1615 3100 -SHSN BLSN BKN006 BKN015CB
       
USTR 160130Z 20005MPS 9999 SCT046 M14/M16 Q1015 R21/350055 NOSIG RMK QFE752/1002
TAF USTR 152251Z 1600/1624 20006MPS 9999 SCT020 
     TEMPO 1606/1618 4000 -SHSN BKN015CB
       
UUEE 160130Z 18004MPS 9999 -SN OVC013 M05/M07 Q0994 R24L/510345 NOSIG
TAF UUEE 152254Z 1600/1624 20005MPS 6000 BKN011 TXM05/1600Z TNM09/1604Z 
     TEMPO 1600/1606 SCT004 BKN007
       
URMT 160130Z 15002MPS CAVOK M02/M03 Q0995 R25/150060 NOSIG RMK QFE708
TAF URMT 152300Z 1600/1609 15003G08MPS 3100 BR BKN007 BKN020 
     TEMPO 1600/1603 VRB01MPS 0300 FZDZ FZFG OVC002 
     FM160300 17005G10MPS 9999 SCT020CB 
     TEMPO 1603/1609 3100 BR BKN011 BKN020CB
       
URSS 160130Z 14008G13MPS 9999 SCT030CB OVC100 16/02 Q0998 WS ALL RWY R06/090070 R02/090070 NOSIG RMK R02/14006G11MPS MT OBSC QFE747
TAF URSS 152258Z 1600/1624 12010G17MPS 9999 BKN040CB OVC100 
     TEMPO 1600/1603 13015G25MPS -SHRA 
     TEMPO 1603/1606 VRB12G20MPS 2500 -TSRA BKN011 BKN030CB OVC100 
     FM160600 29009G14MPS 5000 -SHRA BKN011 BKN020CB OVC100 
     TEMPO 1606/1615 VRB10G18MPS 2100 -TSRAGS BR BKN006 BKN020CB OVC100 
     BECMG 1615/1616 04005MPS 
     TEMPO 1616/1624 35005MPS 3100 -SHSNRA BKN011 BKN030CB OVC100
       
UHMM 160130Z 09001MPS 9999 SCT035 M24/M28 Q1020 R10/82//45 NOSIG RMK QFE750
TAF UHMM 152255Z 1600/1706 02003G08MPS 9999 SCT040 
     TEMPO 1600/1612 10003MPS 6000 -SN BKN030
       
UWGG 160130Z 17002MPS CAVOK M04/M06 Q0999 R18L/420242 NOSIG
TAF UWGG 152252Z 1600/1624 18003MPS 6000 -SHSN BKN011CB TXM03/1600Z TNM06/1603Z 
     TEMPO 1600/1615 22007G12MPS 1500 SHSN BKN005 BKN010CB
       
USRR 160130Z 19004MPS CAVOK M15/M17 Q1010 R25/390038 NOSIG RMK QFE752
TAF USRR 152255Z 1600/1624 18003MPS 3000 BR BKN005 
     TEMPO 1600/1603 1200 BR BKN002 
     FM160300 20006MPS 4000 -SN OVC011 
     TEMPO 1603/1615 2100 -SHSN BKN005 BKN015CB
       
UUYY 160130Z 16004MPS 6000 -SHSN SCT011 BKN020CB M06/M08 Q0999 R18/490335 NOSIG RMK QFE741/0988
TAF UUYY 152300Z 1600/1624 18005G10MPS 3100 -SHSN BR BKN011 BKN015CB 
     TEMPO 1600/1606 1400 SHSN BKN007 BKN012CB 
     FM160600 17004G10MPS 3100 -SHSN BR FEW007 BKN011CB 
     TEMPO 1609/1624 16005G12MPS 1000 SHSN FZRA BKN004 BKN011CB
       
ULAA 160130Z 12004MPS 2800 -SN OVC010 M04/M04 Q0990 R08/590336 NOSIG RMK QFE742/0989
TAF ULAA 152300Z 1600/1624 11003MPS 3100 -SN OVC006 
     TEMPO 1600/1615 09004MPS 0600 +SHSN +FZDZ BKN003 BKN011CB 
     FM161500 12003MPS 6000 -SN BKN007 
     TEMPO 1615/1624 15004MPS 3100 -SHSN BR BKN005 BKN011CB
       
UNNT 160130Z 30001MPS 0300 0250E R25/0900D FZFG SCT023 M10/M12 Q1018 R25/490240 R34/491030 NOSIG RMK QFE753/1005
TAF UNNT 152300Z 1600/1624 27003MPS 5000 -SN BR BKN016 
     TEMPO 1600/1606 0300 FZFG BKN002 
     BECMG 1606/1608 9999 NSW 
     TEMPO 1608/1615 3100 FU BR BKN011 
     TEMPO 1615/1624 1500 BR BKN011
       
UNOO 160130Z 00000MPS 2100 IC FU SCT005 M22/M24 Q1021 R25/810545 NOSIG RMK OBST OBSC QFE757
TAF UNOO 152255Z 1600/1624 26003MPS 1000 BR BKN004 
     TEMPO 1600/1604 0200 FZFG VV002 
     FM160400 2000 BR BKN005 
     TEMPO 1604/1607 1100 BR 
     TEMPO 1612/1624 1000 BR
       
UWSS 160100Z 17005G10MPS 0800 R12/1700 FZDZ FZFG VV002 M01/M01 Q1003 R12/850335 NOSIG RMK QBB080 QFE740
TAF UWSS 152300Z 1600/1609 17005G10MPS 0300 FZDZ FZFG OVC002 
     TEMPO 1600/1609 15007G14MPS 1000 SN BLSN BR OVC003
       
UUDL 160130Z 18005MPS 9999 OVC022 M06/M08 Q0994 R23/493032 NOSIG RMK QFE738
TAF UUDL 152300Z 1600/1624 18003MPS 8000 BKN020 
     TEMPO 1603/1615 3100 BR BKN011
       
UWUU 160130Z 18007MPS 1800 R14R/P2000 SN OVC009 M06/M08 Q1015 R14R/451042 TEMPO 0800 +SN VV004 RMK QBB270 QFE751/1001
TAF UWUU 152258Z 1600/1624 18008G13MPS 2100 -SN OVC007 
     TEMPO 1600/1612 16010G17MPS 0500 +SN FZRA VV004 
     FM161200 18006G12MPS 3100 -SNRA OVC011 
     TEMPO 1612/1624 15007G12MPS 0800 +SNRA VV004
       
UHMA 160130Z 36007MPS 1000 R01/1200 SN DRSN BKN006 OVC023 M20/M23 Q1002 R88/720542 NOSIG RMK END R01/36007MPS QFE748/0997
TAF UHMA 152247Z 1600/1624 35008MPS 1500 SN BLSN BKN006 OVC020 
     TEMPO 1600/1622 01011G16MPS 0500 +SN BLSN VV003 
     BECMG 1622/1624 2500 -SN
       
URML 160130Z 18006MPS 0150 R14/0650N FG VV001 03/02 Q0998 R14/01//70 NOSIG RMK QBB050 MT OBSC QFE748/0998
TAF AMD URML 160036Z 1601/1609 18003G08MPS 1200 BR BKN003 
     TEMPO 1601/1603 0300 FG BKN001
       
URKA 160130Z AUTO 35008MPS 0450 0250NE +SN ///003/// 00/00 Q0997 RMK QBB090 QFE744/0992
TAF URKA 151657Z 1518/1618 10006G12MPS 4000 -SHRA SCT011 BKN020CB 
     TEMPO 1518/1524 0500 +SHRA BKN002 BKN020CB 
     FM160000 28008G13MPS 3100 -SHSNRA BKN011 BKN020CB 
     TEMPO 1600/1615 33015G20MPS 0300 +SHSN BKN002 BKN020CB
       
UUWW 160130Z 17003MPS 9999 -SN BKN010 M06/M08 Q0995 R24/520245 NOSIG
TAF UUWW 152257Z 1600/1624 19004MPS 6000 BKN011 TXM05/1611Z TNM09/1606Z 
     TEMPO 1600/1607 BKN007 
     PROB40 
     TEMPO 1602/1607 0300 FZFG BKN003 
     BECMG 1609/1611 25005MPS
       
UWLW 160100Z 17007G12MPS 8000 OVC008 M00/M01 Q1005 R20/390142 NOSIG RMK QFE748
TAF UWLW 152245Z 1600/1624 16006G12MPS 3100 -SN BR OVC011 
     TEMPO 1600/1606 19007G14MPS 1000 SNRA OVC004 
     TEMPO 1606/1618 14010G16MPS 0800 +SNRA OVC003
       
UEEE 160130Z 00000MPS 0350 0250NE R23L/0300U FG NSC M43/M48 Q1031 R23L/490150 NOSIG RMK QFE764
TAF COR UEEE 152300Z 1600/1706 29003MPS 0300 FG VV003 TXM40/1606Z TNM43/1600Z 
     TEMPO 1600/1612 0700 FG NSC
       
UHPP 160130Z 33003MPS 9999 FEW036 M16/M21 Q1015 R34L/720355 NOSIG RMK MT OBSC QFE757/1010
TAF UHPP 152251Z 1600/1706 36003G12MPS 9999 NSC 
     TEMPO 1600/1606 14003G12MPS BKN030CB 
     FM160600 12003G12MPS 9999 BKN020CB 
     TEMPO 1606/1611 10005G15MPS 3100 -SHSN BKN011 OVC020CB 
     FM161100 10008G18MPS 2000 SHSN BLSN BKN005 OVC020CB 
     TEMPO 1611/1704 08010G25MPS 0500 +SHSN BLSN VV002 
     FM170400 30003G12MPS 3100 -SHSN BKN011 BKN020CB 
     TEMPO 1704/1706 24003G12MPS 1000 SHSN VV003